Terminal Aerodrome Forecast
Issued by NWS Central Illinois

Home | Current Version | Previous Version | Text Only | Print | Product List | Glossary On
Versions: 1 2 3 4 5 6 7 8 9 10 11 12 13 14 15 16 17 18
000
FTUS43 KILX 050704 AAA
TAFPIA
TAF AMD
KPIA 050704Z 0507/0606 00000KT P6SM SKC
     FM050900 VRB03KT 4SM BR SKC
      TEMPO 0510/0512 2SM BR
     FM051300 16004KT P6SM SCT030
     FM052000 18007KT P6SM SCT035=

USA.gov is the U.S. government's official web portal to all federal, state and local government web resources and services.